sensor_id;sensor_type;location;lat;lon;timestamp;P1;durP1;ratioP1;P2;durP2;ratioP2
10831;SDS011;5469;48.574;8.768;2022-09-12T00:01:07;1.90;;;1.80;;
10831;SDS011;5469;48.574;8.768;2022-09-12T00:03:44;3.03;;;1.83;;
10831;SDS011;5469;48.574;8.768;2022-09-12T00:06:21;1.90;;;1.80;;
10831;SDS011;5469;48.574;8.768;2022-09-12T00:08:57;2.00;;;1.80;;
10831;SDS011;5469;48.574;8.768;2022-09-12T00:11:35;2.50;;;1.83;;
10831;SDS011;5469;48.574;8.768;2022-09-12T00:14:12;2.20;;;2.00;;
10831;SDS011;5469;48.574;8.768;2022-09-12T00:16:48;2.27;;;1.70;;
10831;SDS011;5469;48.574;8.768;2022-09-12T00:19:23;2.73;;;1.70;;
10831;SDS011;5469;48.574;8.768;2022-09-12T00:21:58;3.80;;;2.33;;
10831;SDS011;5469;48.574;8.768;2022-09-12T00:24:33;2.40;;;1.90;;
10831;SDS011;5469;48.574;8.768;2022-09-12T00:27:08;3.07;;;2.57;;
10831;SDS011;5469;48.574;8.768;2022-09-12T00:29:45;3.00;;;2.40;;
10831;SDS011;5469;48.574;8.768;2022-09-12T00:32:20;3.27;;;2.40;;
10831;SDS011;5469;48.574;8.768;2022-09-12T00:34:56;2.40;;;2.20;;
10831;SDS011;5469;48.574;8.768;2022-09-12T00:37:33;2.57;;;2.00;;
10831;SDS011;5469;48.574;8.768;2022-09-12T00:40:09;4.03;;;2.00;;
10831;SDS011;5469;48.574;8.768;2022-09-12T00:42:44;2.50;;;2.10;;
10831;SDS011;5469;48.574;8.768;2022-09-12T00:45:22;2.10;;;1.77;;
10831;SDS011;5469;48.574;8.768;2022-09-12T00:48:00;3.00;;;2.30;;
10831;SDS011;5469;48.574;8.768;2022-09-12T00:50:37;2.50;;;2.00;;
10831;SDS011;5469;48.574;8.768;2022-09-12T00:53:12;2.63;;;2.17;;
10831;SDS011;5469;48.574;8.768;2022-09-12T00:55:47;3.10;;;2.73;;
10831;SDS011;5469;48.574;8.768;2022-09-12T00:58:25;2.80;;;2.60;;
10831;SDS011;5469;48.574;8.768;2022-09-12T01:01:08;2.80;;;2.10;;
10831;SDS011;5469;48.574;8.768;2022-09-12T01:03:43;2.10;;;1.80;;
10831;SDS011;5469;48.574;8.768;2022-09-12T01:06:20;2.83;;;2.33;;
10831;SDS011;5469;48.574;8.768;2022-09-12T01:08:59;2.20;;;2.03;;
10831;SDS011;5469;48.574;8.768;2022-09-12T01:11:36;3.10;;;1.90;;
10831;SDS011;5469;48.574;8.768;2022-09-12T01:14:13;2.30;;;2.10;;
10831;SDS011;5469;48.574;8.768;2022-09-12T01:16:51;1.77;;;1.67;;
10831;SDS011;5469;48.574;8.768;2022-09-12T01:19:42;2.27;;;1.73;;
10831;SDS011;5469;48.574;8.768;2022-09-12T01:22:35;2.47;;;2.00;;
10831;SDS011;5469;48.574;8.768;2022-09-12T01:25:27;1.73;;;1.63;;
10831;SDS011;5469;48.574;8.768;2022-09-12T01:28:16;2.40;;;2.13;;
10831;SDS011;5469;48.574;8.768;2022-09-12T01:31:04;1.87;;;1.63;;
10831;SDS011;5469;48.574;8.768;2022-09-12T01:33:47;2.80;;;1.97;;
10831;SDS011;5469;48.574;8.768;2022-09-12T01:36:33;1.73;;;1.63;;
10831;SDS011;5469;48.574;8.768;2022-09-12T01:39:15;2.10;;;1.90;;
10831;SDS011;5469;48.574;8.768;2022-09-12T01:41:54;1.83;;;1.73;;
10831;SDS011;5469;48.574;8.768;2022-09-12T01:44:44;2.50;;;1.87;;
10831;SDS011;5469;48.574;8.768;2022-09-12T01:47:28;2.13;;;1.60;;
10831;SDS011;5469;48.574;8.768;2022-09-12T01:50:12;1.77;;;1.50;;
10831;SDS011;5469;48.574;8.768;2022-09-12T01:52:51;2.17;;;1.70;;
10831;SDS011;5469;48.574;8.768;2022-09-12T01:55:30;1.83;;;1.73;;
10831;SDS011;5469;48.574;8.768;2022-09-12T01:58:11;2.90;;;2.23;;
10831;SDS011;5469;48.574;8.768;2022-09-12T02:00:51;2.53;;;1.90;;
10831;SDS011;5469;48.574;8.768;2022-09-12T02:03:36;2.90;;;2.00;;
10831;SDS011;5469;48.574;8.768;2022-09-12T02:06:17;2.83;;;1.80;;
10831;SDS011;5469;48.574;8.768;2022-09-12T02:08:56;2.03;;;1.83;;
10831;SDS011;5469;48.574;8.768;2022-09-12T02:11:39;2.67;;;2.47;;
10831;SDS011;5469;48.574;8.768;2022-09-12T02:14:16;2.13;;;1.70;;
10831;SDS011;5469;48.574;8.768;2022-09-12T02:16:59;2.23;;;1.87;;
10831;SDS011;5469;48.574;8.768;2022-09-12T02:19:41;2.27;;;2.00;;
10831;SDS011;5469;48.574;8.768;2022-09-12T02:22:23;1.70;;;1.60;;
10831;SDS011;5469;48.574;8.768;2022-09-12T02:25:01;2.20;;;2.00;;
10831;SDS011;5469;48.574;8.768;2022-09-12T02:27:41;1.90;;;1.80;;
10831;SDS011;5469;48.574;8.768;2022-09-12T02:30:21;2.63;;;1.93;;
10831;SDS011;5469;48.574;8.768;2022-09-12T02:32:59;1.60;;;1.50;;
10831;SDS011;5469;48.574;8.768;2022-09-12T02:35:40;2.07;;;1.87;;
10831;SDS011;5469;48.574;8.768;2022-09-12T02:38:23;2.37;;;2.17;;
10831;SDS011;5469;48.574;8.768;2022-09-12T02:41:05;1.80;;;1.70;;
10831;SDS011;5469;48.574;8.768;2022-09-12T02:43:40;1.97;;;1.57;;
10831;SDS011;5469;48.574;8.768;2022-09-12T02:46:17;2.93;;;2.13;;
10831;SDS011;5469;48.574;8.768;2022-09-12T02:48:58;1.93;;;1.80;;
10831;SDS011;5469;48.574;8.768;2022-09-12T02:51:36;2.53;;;2.13;;
10831;SDS011;5469;48.574;8.768;2022-09-12T02:54:12;2.27;;;2.07;;
10831;SDS011;5469;48.574;8.768;2022-09-12T02:56:49;2.03;;;1.60;;
10831;SDS011;5469;48.574;8.768;2022-09-12T02:59:24;2.03;;;1.70;;
10831;SDS011;5469;48.574;8.768;2022-09-12T03:02:06;2.30;;;2.10;;
10831;SDS011;5469;48.574;8.768;2022-09-12T03:04:58;1.60;;;1.50;;
10831;SDS011;5469;48.574;8.768;2022-09-12T03:07:51;1.87;;;1.73;;
10831;SDS011;5469;48.574;8.768;2022-09-12T03:10:39;2.43;;;1.57;;
10831;SDS011;5469;48.574;8.768;2022-09-12T03:13:22;2.27;;;2.00;;
10831;SDS011;5469;48.574;8.768;2022-09-12T03:16:06;3.03;;;2.13;;
10831;SDS011;5469;48.574;8.768;2022-09-12T03:18:50;2.30;;;2.10;;
10831;SDS011;5469;48.574;8.768;2022-09-12T03:21:32;3.03;;;2.63;;
10831;SDS011;5469;48.574;8.768;2022-09-12T03:24:19;3.37;;;2.10;;
10831;SDS011;5469;48.574;8.768;2022-09-12T03:27:02;2.17;;;1.97;;
10831;SDS011;5469;48.574;8.768;2022-09-12T03:29:41;2.80;;;2.47;;
10831;SDS011;5469;48.574;8.768;2022-09-12T03:32:19;2.73;;;2.43;;
10831;SDS011;5469;48.574;8.768;2022-09-12T03:35:11;2.73;;;2.47;;
10831;SDS011;5469;48.574;8.768;2022-09-12T03:37:47;3.67;;;2.60;;
10831;SDS011;5469;48.574;8.768;2022-09-12T03:40:24;2.17;;;1.97;;
10831;SDS011;5469;48.574;8.768;2022-09-12T03:43:00;2.43;;;2.20;;
10831;SDS011;5469;48.574;8.768;2022-09-12T03:45:35;1.60;;;1.50;;
10831;SDS011;5469;48.574;8.768;2022-09-12T03:48:10;1.60;;;1.50;;
10831;SDS011;5469;48.574;8.768;2022-09-12T03:50:45;2.73;;;2.13;;
10831;SDS011;5469;48.574;8.768;2022-09-12T03:53:20;2.60;;;2.00;;
10831;SDS011;5469;48.574;8.768;2022-09-12T03:55:57;2.33;;;1.77;;
10831;SDS011;5469;48.574;8.768;2022-09-12T03:58:37;3.30;;;1.87;;
10831;SDS011;5469;48.574;8.768;2022-09-12T04:01:13;1.60;;;1.50;;
10831;SDS011;5469;48.574;8.768;2022-09-12T04:03:50;2.30;;;1.47;;
10831;SDS011;5469;48.574;8.768;2022-09-12T04:06:26;1.87;;;1.63;;
10831;SDS011;5469;48.574;8.768;2022-09-12T04:09:02;1.97;;;1.60;;
10831;SDS011;5469;48.574;8.768;2022-09-12T04:11:38;2.17;;;1.67;;
10831;SDS011;5469;48.574;8.768;2022-09-12T04:14:14;2.10;;;1.80;;
10831;SDS011;5469;48.574;8.768;2022-09-12T04:16:49;1.90;;;1.80;;
10831;SDS011;5469;48.574;8.768;2022-09-12T04:19:24;1.70;;;1.50;;
10831;SDS011;5469;48.574;8.768;2022-09-12T04:21:59;1.77;;;1.67;;
10831;SDS011;5469;48.574;8.768;2022-09-12T04:24:34;1.80;;;1.70;;
10831;SDS011;5469;48.574;8.768;2022-09-12T04:27:11;1.80;;;1.70;;
10831;SDS011;5469;48.574;8.768;2022-09-12T04:29:46;2.37;;;1.70;;
10831;SDS011;5469;48.574;8.768;2022-09-12T04:32:21;2.63;;;2.03;;
10831;SDS011;5469;48.574;8.768;2022-09-12T04:34:57;1.70;;;1.60;;
10831;SDS011;5469;48.574;8.768;2022-09-12T04:37:33;2.63;;;2.13;;
10831;SDS011;5469;48.574;8.768;2022-09-12T04:40:09;2.50;;;2.03;;
10831;SDS011;5469;48.574;8.768;2022-09-12T04:42:45;2.00;;;1.80;;
10831;SDS011;5469;48.574;8.768;2022-09-12T04:45:21;2.00;;;1.60;;
10831;SDS011;5469;48.574;8.768;2022-09-12T04:47:57;2.10;;;1.90;;
10831;SDS011;5469;48.574;8.768;2022-09-12T04:50:32;1.90;;;1.67;;
10831;SDS011;5469;48.574;8.768;2022-09-12T04:53:07;2.77;;;1.70;;
10831;SDS011;5469;48.574;8.768;2022-09-12T04:55:42;2.20;;;1.60;;
10831;SDS011;5469;48.574;8.768;2022-09-12T04:58:18;2.27;;;2.07;;
10831;SDS011;5469;48.574;8.768;2022-09-12T05:00:53;1.90;;;1.70;;
10831;SDS011;5469;48.574;8.768;2022-09-12T05:03:28;2.17;;;2.00;;
10831;SDS011;5469;48.574;8.768;2022-09-12T05:06:03;1.87;;;1.70;;
10831;SDS011;5469;48.574;8.768;2022-09-12T05:08:41;1.60;;;1.50;;
10831;SDS011;5469;48.574;8.768;2022-09-12T05:11:18;3.03;;;1.83;;
10831;SDS011;5469;48.574;8.768;2022-09-12T05:13:55;1.97;;;1.87;;
10831;SDS011;5469;48.574;8.768;2022-09-12T05:16:31;1.73;;;1.63;;
10831;SDS011;5469;48.574;8.768;2022-09-12T05:19:06;2.27;;;1.60;;
10831;SDS011;5469;48.574;8.768;2022-09-12T05:21:42;1.83;;;1.67;;
10831;SDS011;5469;48.574;8.768;2022-09-12T05:24:17;2.23;;;1.80;;
10831;SDS011;5469;48.574;8.768;2022-09-12T05:26:52;2.10;;;1.80;;
10831;SDS011;5469;48.574;8.768;2022-09-12T05:29:29;2.47;;;2.00;;
10831;SDS011;5469;48.574;8.768;2022-09-12T05:32:05;1.90;;;1.80;;
10831;SDS011;5469;48.574;8.768;2022-09-12T05:34:40;1.57;;;1.47;;
10831;SDS011;5469;48.574;8.768;2022-09-12T05:37:15;1.40;;;1.30;;
10831;SDS011;5469;48.574;8.768;2022-09-12T05:39:50;1.63;;;1.53;;
10831;SDS011;5469;48.574;8.768;2022-09-12T05:42:25;1.60;;;1.50;;
10831;SDS011;5469;48.574;8.768;2022-09-12T05:45:03;2.67;;;1.90;;
10831;SDS011;5469;48.574;8.768;2022-09-12T05:47:39;2.90;;;2.10;;
10831;SDS011;5469;48.574;8.768;2022-09-12T05:50:14;1.77;;;1.63;;
10831;SDS011;5469;48.574;8.768;2022-09-12T05:52:49;2.20;;;2.00;;
10831;SDS011;5469;48.574;8.768;2022-09-12T05:55:25;1.93;;;1.70;;
10831;SDS011;5469;48.574;8.768;2022-09-12T05:58:02;2.23;;;1.53;;
10831;SDS011;5469;48.574;8.768;2022-09-12T06:00:39;2.13;;;1.93;;
10831;SDS011;5469;48.574;8.768;2022-09-12T06:03:14;4.77;;;2.27;;
10831;SDS011;5469;48.574;8.768;2022-09-12T06:05:49;2.20;;;1.60;;
10831;SDS011;5469;48.574;8.768;2022-09-12T06:08:24;1.43;;;1.33;;
10831;SDS011;5469;48.574;8.768;2022-09-12T06:11:00;3.33;;;1.50;;
10831;SDS011;5469;48.574;8.768;2022-09-12T06:13:38;2.20;;;1.47;;
10831;SDS011;5469;48.574;8.768;2022-09-12T06:16:16;1.50;;;1.40;;
10831;SDS011;5469;48.574;8.768;2022-09-12T06:18:54;1.73;;;1.63;;
10831;SDS011;5469;48.574;8.768;2022-09-12T06:21:32;1.80;;;1.70;;
10831;SDS011;5469;48.574;8.768;2022-09-12T06:24:10;1.50;;;1.40;;
10831;SDS011;5469;48.574;8.768;2022-09-12T06:26:45;1.50;;;1.40;;
10831;SDS011;5469;48.574;8.768;2022-09-12T06:29:20;2.37;;;1.80;;
10831;SDS011;5469;48.574;8.768;2022-09-12T06:31:57;2.73;;;1.90;;
10831;SDS011;5469;48.574;8.768;2022-09-12T06:34:33;2.97;;;2.00;;
10831;SDS011;5469;48.574;8.768;2022-09-12T06:37:08;2.13;;;1.77;;
10831;SDS011;5469;48.574;8.768;2022-09-12T06:39:43;2.07;;;1.77;;
10831;SDS011;5469;48.574;8.768;2022-09-12T06:42:19;2.60;;;1.97;;
10831;SDS011;5469;48.574;8.768;2022-09-12T06:44:54;1.77;;;1.67;;
10831;SDS011;5469;48.574;8.768;2022-09-12T06:47:31;1.63;;;1.53;;
10831;SDS011;5469;48.574;8.768;2022-09-12T06:50:06;1.67;;;1.57;;
10831;SDS011;5469;48.574;8.768;2022-09-12T06:52:44;1.87;;;1.67;;
10831;SDS011;5469;48.574;8.768;2022-09-12T06:55:22;1.63;;;1.53;;
10831;SDS011;5469;48.574;8.768;2022-09-12T06:57:58;1.50;;;1.40;;
10831;SDS011;5469;48.574;8.768;2022-09-12T07:00:34;2.20;;;1.60;;
10831;SDS011;5469;48.574;8.768;2022-09-12T07:03:10;1.80;;;1.70;;
10831;SDS011;5469;48.574;8.768;2022-09-12T07:05:45;1.93;;;1.60;;
10831;SDS011;5469;48.574;8.768;2022-09-12T07:08:20;2.27;;;1.67;;
10831;SDS011;5469;48.574;8.768;2022-09-12T07:10:55;2.10;;;1.90;;
10831;SDS011;5469;48.574;8.768;2022-09-12T07:13:31;1.63;;;1.40;;
10831;SDS011;5469;48.574;8.768;2022-09-12T07:16:07;1.73;;;1.63;;
10831;SDS011;5469;48.574;8.768;2022-09-12T07:18:48;2.00;;;1.57;;
10831;SDS011;5469;48.574;8.768;2022-09-12T07:21:24;1.60;;;1.50;;
10831;SDS011;5469;48.574;8.768;2022-09-12T07:24:01;1.60;;;1.50;;
10831;SDS011;5469;48.574;8.768;2022-09-12T07:26:37;2.03;;;1.67;;
10831;SDS011;5469;48.574;8.768;2022-09-12T07:29:14;1.63;;;1.50;;
10831;SDS011;5469;48.574;8.768;2022-09-12T07:31:50;1.97;;;1.70;;
10831;SDS011;5469;48.574;8.768;2022-09-12T07:34:26;2.10;;;1.60;;
10831;SDS011;5469;48.574;8.768;2022-09-12T07:37:03;1.70;;;1.60;;
10831;SDS011;5469;48.574;8.768;2022-09-12T07:39:39;1.93;;;1.47;;
10831;SDS011;5469;48.574;8.768;2022-09-12T07:42:14;1.40;;;1.20;;
10831;SDS011;5469;48.574;8.768;2022-09-12T07:44:48;2.63;;;1.77;;
10831;SDS011;5469;48.574;8.768;2022-09-12T07:47:24;1.30;;;1.20;;
10831;SDS011;5469;48.574;8.768;2022-09-12T07:50:00;1.57;;;1.37;;
10831;SDS011;5469;48.574;8.768;2022-09-12T07:52:37;1.63;;;1.40;;
10831;SDS011;5469;48.574;8.768;2022-09-12T07:55:13;1.57;;;1.47;;
10831;SDS011;5469;48.574;8.768;2022-09-12T07:57:49;2.17;;;1.37;;
10831;SDS011;5469;48.574;8.768;2022-09-12T08:00:24;1.47;;;1.27;;
10831;SDS011;5469;48.574;8.768;2022-09-12T08:03:08;1.73;;;1.47;;
10831;SDS011;5469;48.574;8.768;2022-09-12T08:05:45;1.40;;;1.30;;
10831;SDS011;5469;48.574;8.768;2022-09-12T08:08:21;1.63;;;1.53;;
10831;SDS011;5469;48.574;8.768;2022-09-12T08:10:57;1.57;;;1.40;;
10831;SDS011;5469;48.574;8.768;2022-09-12T08:13:37;0.90;;;0.87;;
10831;SDS011;5469;48.574;8.768;2022-09-12T08:16:14;1.30;;;1.20;;
10831;SDS011;5469;48.574;8.768;2022-09-12T08:18:51;1.00;;;1.00;;
10831;SDS011;5469;48.574;8.768;2022-09-12T08:21:28;1.00;;;0.97;;
10831;SDS011;5469;48.574;8.768;2022-09-12T08:24:05;1.67;;;1.23;;
10831;SDS011;5469;48.574;8.768;2022-09-12T08:26:43;1.00;;;1.00;;
10831;SDS011;5469;48.574;8.768;2022-09-12T08:29:18;1.20;;;1.07;;
10831;SDS011;5469;48.574;8.768;2022-09-12T08:31:53;1.87;;;1.60;;
10831;SDS011;5469;48.574;8.768;2022-09-12T08:34:28;1.20;;;1.10;;
10831;SDS011;5469;48.574;8.768;2022-09-12T08:37:05;1.50;;;1.40;;
10831;SDS011;5469;48.574;8.768;2022-09-12T08:39:40;1.27;;;1.20;;
10831;SDS011;5469;48.574;8.768;2022-09-12T08:42:23;3.07;;;1.20;;
10831;SDS011;5469;48.574;8.768;2022-09-12T08:45:15;1.37;;;1.27;;
10831;SDS011;5469;48.574;8.768;2022-09-12T08:47:54;1.47;;;1.20;;
10831;SDS011;5469;48.574;8.768;2022-09-12T08:50:30;1.37;;;1.00;;
10831;SDS011;5469;48.574;8.768;2022-09-12T08:53:09;1.20;;;1.10;;
10831;SDS011;5469;48.574;8.768;2022-09-12T08:55:51;1.13;;;1.03;;
10831;SDS011;5469;48.574;8.768;2022-09-12T08:58:29;1.10;;;1.10;;
10831;SDS011;5469;48.574;8.768;2022-09-12T09:01:13;1.93;;;1.23;;
10831;SDS011;5469;48.574;8.768;2022-09-12T09:04:08;1.80;;;1.13;;
10831;SDS011;5469;48.574;8.768;2022-09-12T09:10:05;1.80;;;1.40;;
10831;SDS011;5469;48.574;8.768;2022-09-12T09:12:50;1.37;;;1.27;;
10831;SDS011;5469;48.574;8.768;2022-09-12T09:15:38;0.90;;;0.90;;
10831;SDS011;5469;48.574;8.768;2022-09-12T09:18:21;3.17;;;1.50;;
10831;SDS011;5469;48.574;8.768;2022-09-12T09:21:01;1.30;;;1.20;;
10831;SDS011;5469;48.574;8.768;2022-09-12T09:23:41;1.23;;;1.00;;
10831;SDS011;5469;48.574;8.768;2022-09-12T09:26:22;1.70;;;1.10;;
10831;SDS011;5469;48.574;8.768;2022-09-12T09:29:03;1.07;;;1.03;;
10831;SDS011;5469;48.574;8.768;2022-09-12T09:31:47;0.80;;;0.80;;
10831;SDS011;5469;48.574;8.768;2022-09-12T09:34:25;1.40;;;1.30;;
10831;SDS011;5469;48.574;8.768;2022-09-12T09:37:04;1.50;;;1.40;;
10831;SDS011;5469;48.574;8.768;2022-09-12T09:39:50;0.93;;;0.93;;
10831;SDS011;5469;48.574;8.768;2022-09-12T09:42:32;1.17;;;1.07;;
10831;SDS011;5469;48.574;8.768;2022-09-12T09:45:16;0.90;;;0.90;;
10831;SDS011;5469;48.574;8.768;2022-09-12T09:47:56;0.93;;;0.93;;
10831;SDS011;5469;48.574;8.768;2022-09-12T09:50:35;1.13;;;1.03;;
10831;SDS011;5469;48.574;8.768;2022-09-12T09:53:14;1.40;;;1.30;;
10831;SDS011;5469;48.574;8.768;2022-09-12T09:55:59;1.00;;;0.90;;
10831;SDS011;5469;48.574;8.768;2022-09-12T09:58:40;1.50;;;1.10;;
10831;SDS011;5469;48.574;8.768;2022-09-12T10:01:15;1.30;;;1.20;;
10831;SDS011;5469;48.574;8.768;2022-09-12T10:03:52;1.23;;;1.13;;
10831;SDS011;5469;48.574;8.768;2022-09-12T10:06:29;1.10;;;1.03;;
10831;SDS011;5469;48.574;8.768;2022-09-12T10:11:55;1.00;;;1.00;;
10831;SDS011;5469;48.574;8.768;2022-09-12T10:14:36;0.73;;;0.73;;
10831;SDS011;5469;48.574;8.768;2022-09-12T10:17:25;1.37;;;1.27;;
10831;SDS011;5469;48.574;8.768;2022-09-12T10:20:03;0.80;;;0.80;;
10831;SDS011;5469;48.574;8.768;2022-09-12T10:22:58;1.10;;;1.00;;
10831;SDS011;5469;48.574;8.768;2022-09-12T10:25:36;1.87;;;1.10;;
10831;SDS011;5469;48.574;8.768;2022-09-12T10:28:24;0.50;;;0.50;;
10831;SDS011;5469;48.574;8.768;2022-09-12T10:31:09;0.80;;;0.80;;
10831;SDS011;5469;48.574;8.768;2022-09-12T10:33:48;1.00;;;0.90;;
10831;SDS011;5469;48.574;8.768;2022-09-12T10:36:24;1.13;;;0.77;;
10831;SDS011;5469;48.574;8.768;2022-09-12T10:39:11;0.90;;;0.83;;
10831;SDS011;5469;48.574;8.768;2022-09-12T10:41:51;1.70;;;1.03;;
10831;SDS011;5469;48.574;8.768;2022-09-12T10:44:27;0.70;;;0.60;;
10831;SDS011;5469;48.574;8.768;2022-09-12T10:49:55;0.50;;;0.50;;
10831;SDS011;5469;48.574;8.768;2022-09-12T10:52:51;0.73;;;0.73;;
10831;SDS011;5469;48.574;8.768;2022-09-12T10:55:29;0.70;;;0.70;;
10831;SDS011;5469;48.574;8.768;2022-09-12T10:58:14;0.77;;;0.77;;
10831;SDS011;5469;48.574;8.768;2022-09-12T11:01:06;0.57;;;0.57;;
10831;SDS011;5469;48.574;8.768;2022-09-12T11:03:55;0.60;;;0.60;;
10831;SDS011;5469;48.574;8.768;2022-09-12T11:06:44;0.73;;;0.73;;
10831;SDS011;5469;48.574;8.768;2022-09-12T11:09:27;0.83;;;0.67;;
10831;SDS011;5469;48.574;8.768;2022-09-12T11:12:10;0.70;;;0.57;;
10831;SDS011;5469;48.574;8.768;2022-09-12T11:14:57;0.75;;;0.60;;
10831;SDS011;5469;48.574;8.768;2022-09-12T11:17:45;0.63;;;0.63;;
10831;SDS011;5469;48.574;8.768;2022-09-12T11:20:34;0.47;;;0.43;;
10831;SDS011;5469;48.574;8.768;2022-09-12T11:26:41;0.50;;;0.50;;
10831;SDS011;5469;48.574;8.768;2022-09-12T11:29:26;0.60;;;0.60;;
10831;SDS011;5469;48.574;8.768;2022-09-12T11:32:11;0.40;;;0.40;;
10831;SDS011;5469;48.574;8.768;2022-09-12T11:35:05;0.50;;;0.50;;
10831;SDS011;5469;48.574;8.768;2022-09-12T11:38:01;0.52;;;0.50;;
10831;SDS011;5469;48.574;8.768;2022-09-12T11:40:47;0.50;;;0.47;;
10831;SDS011;5469;48.574;8.768;2022-09-12T11:43:30;0.45;;;0.45;;
10831;SDS011;5469;48.574;8.768;2022-09-12T11:46:11;0.50;;;0.50;;
10831;SDS011;5469;48.574;8.768;2022-09-12T11:48:50;0.40;;;0.40;;
10831;SDS011;5469;48.574;8.768;2022-09-12T11:51:32;0.45;;;0.45;;
10831;SDS011;5469;48.574;8.768;2022-09-12T11:54:15;0.50;;;0.50;;
10831;SDS011;5469;48.574;8.768;2022-09-12T11:56:58;0.40;;;0.40;;
10831;SDS011;5469;48.574;8.768;2022-09-12T11:59:41;0.40;;;0.40;;
10831;SDS011;5469;48.574;8.768;2022-09-12T12:02:20;1.02;;;0.80;;
10831;SDS011;5469;48.574;8.768;2022-09-12T12:05:01;0.52;;;0.32;;
10831;SDS011;5469;48.574;8.768;2022-09-12T12:07:50;0.40;;;0.40;;
10831;SDS011;5469;48.574;8.768;2022-09-12T12:10:31;0.40;;;0.40;;
10831;SDS011;5469;48.574;8.768;2022-09-12T12:13:14;0.68;;;0.40;;
10831;SDS011;5469;48.574;8.768;2022-09-12T12:15:55;0.40;;;0.40;;
10831;SDS011;5469;48.574;8.768;2022-09-12T12:18:32;0.43;;;0.43;;
10831;SDS011;5469;48.574;8.768;2022-09-12T12:21:21;0.63;;;0.57;;
10831;SDS011;5469;48.574;8.768;2022-09-12T12:24:18;0.50;;;0.50;;
10831;SDS011;5469;48.574;8.768;2022-09-12T12:26:58;0.68;;;0.63;;
10831;SDS011;5469;48.574;8.768;2022-09-12T12:29:39;0.40;;;0.40;;
10831;SDS011;5469;48.574;8.768;2022-09-12T12:32:25;0.93;;;0.60;;
10831;SDS011;5469;48.574;8.768;2022-09-12T12:38:27;0.68;;;0.45;;
10831;SDS011;5469;48.574;8.768;2022-09-12T12:47:23;0.40;;;0.40;;
10831;SDS011;5469;48.574;8.768;2022-09-12T12:50:03;0.40;;;0.40;;
10831;SDS011;5469;48.574;8.768;2022-09-12T12:52:52;1.35;;;0.50;;
10831;SDS011;5469;48.574;8.768;2022-09-12T12:55:32;0.47;;;0.47;;
10831;SDS011;5469;48.574;8.768;2022-09-12T12:58:21;0.50;;;0.50;;
10831;SDS011;5469;48.574;8.768;2022-09-12T13:01:03;0.50;;;0.43;;
10831;SDS011;5469;48.574;8.768;2022-09-12T13:03:42;0.75;;;0.60;;
10831;SDS011;5469;48.574;8.768;2022-09-12T13:06:28;0.63;;;0.57;;
10831;SDS011;5469;48.574;8.768;2022-09-12T13:09:07;0.50;;;0.38;;
10831;SDS011;5469;48.574;8.768;2022-09-12T13:11:56;0.35;;;0.35;;
10831;SDS011;5469;48.574;8.768;2022-09-12T13:17:28;1.50;;;0.70;;
10831;SDS011;5469;48.574;8.768;2022-09-12T13:20:15;0.50;;;0.50;;
10831;SDS011;5469;48.574;8.768;2022-09-12T13:22:55;0.30;;;0.30;;
10831;SDS011;5469;48.574;8.768;2022-09-12T13:25:31;0.50;;;0.50;;
10831;SDS011;5469;48.574;8.768;2022-09-12T13:28:14;0.60;;;0.40;;
10831;SDS011;5469;48.574;8.768;2022-09-12T13:30:56;0.50;;;0.40;;
10831;SDS011;5469;48.574;8.768;2022-09-12T13:33:38;0.30;;;0.30;;
10831;SDS011;5469;48.574;8.768;2022-09-12T13:36:27;0.30;;;0.30;;
10831;SDS011;5469;48.574;8.768;2022-09-12T13:39:13;0.32;;;0.32;;
10831;SDS011;5469;48.574;8.768;2022-09-12T13:41:56;0.30;;;0.30;;
10831;SDS011;5469;48.574;8.768;2022-09-12T13:44:40;0.40;;;0.25;;
10831;SDS011;5469;48.574;8.768;2022-09-12T13:47:21;1.02;;;0.50;;
10831;SDS011;5469;48.574;8.768;2022-09-12T13:50:01;0.30;;;0.30;;
10831;SDS011;5469;48.574;8.768;2022-09-12T13:52:41;0.60;;;0.38;;
10831;SDS011;5469;48.574;8.768;2022-09-12T13:55:27;0.20;;;0.20;;
10831;SDS011;5469;48.574;8.768;2022-09-12T13:58:05;2.03;;;0.52;;
10831;SDS011;5469;48.574;8.768;2022-09-12T14:00:58;0.30;;;0.30;;
10831;SDS011;5469;48.574;8.768;2022-09-12T14:03:38;0.38;;;0.38;;
10831;SDS011;5469;48.574;8.768;2022-09-12T14:06:36;0.93;;;0.30;;
10831;SDS011;5469;48.574;8.768;2022-09-12T14:09:21;0.60;;;0.40;;
10831;SDS011;5469;48.574;8.768;2022-09-12T14:11:59;0.40;;;0.40;;
10831;SDS011;5469;48.574;8.768;2022-09-12T14:14:36;0.22;;;0.22;;
10831;SDS011;5469;48.574;8.768;2022-09-12T14:17:14;6.32;;;0.60;;
10831;SDS011;5469;48.574;8.768;2022-09-12T14:19:55;0.25;;;0.25;;
10831;SDS011;5469;48.574;8.768;2022-09-12T14:22:31;0.20;;;0.20;;
10831;SDS011;5469;48.574;8.768;2022-09-12T14:25:09;0.85;;;0.35;;
10831;SDS011;5469;48.574;8.768;2022-09-12T14:27:50;9.07;;;0.40;;
10831;SDS011;5469;48.574;8.768;2022-09-12T14:30:28;0.95;;;0.60;;
10831;SDS011;5469;48.574;8.768;2022-09-12T14:33:18;0.28;;;0.28;;
10831;SDS011;5469;48.574;8.768;2022-09-12T14:36:06;0.30;;;0.30;;
10831;SDS011;5469;48.574;8.768;2022-09-12T14:38:44;0.45;;;0.40;;
10831;SDS011;5469;48.574;8.768;2022-09-12T14:41:24;0.40;;;0.40;;
10831;SDS011;5469;48.574;8.768;2022-09-12T14:44:02;0.40;;;0.40;;
10831;SDS011;5469;48.574;8.768;2022-09-12T14:46:41;0.30;;;0.30;;
10831;SDS011;5469;48.574;8.768;2022-09-12T14:49:18;0.40;;;0.40;;
10831;SDS011;5469;48.574;8.768;2022-09-12T14:51:59;0.30;;;0.30;;
10831;SDS011;5469;48.574;8.768;2022-09-12T14:54:38;0.43;;;0.40;;
10831;SDS011;5469;48.574;8.768;2022-09-12T14:57:30;0.38;;;0.38;;
10831;SDS011;5469;48.574;8.768;2022-09-12T15:00:20;0.10;;;0.10;;
10831;SDS011;5469;48.574;8.768;2022-09-12T15:03:13;0.30;;;0.30;;
10831;SDS011;5469;48.574;8.768;2022-09-12T15:05:55;0.30;;;0.30;;
10831;SDS011;5469;48.574;8.768;2022-09-12T15:08:31;0.28;;;0.28;;
10831;SDS011;5469;48.574;8.768;2022-09-12T15:11:08;0.30;;;0.30;;
10831;SDS011;5469;48.574;8.768;2022-09-12T15:13:44;0.30;;;0.30;;
10831;SDS011;5469;48.574;8.768;2022-09-12T15:16:19;0.30;;;0.30;;
10831;SDS011;5469;48.574;8.768;2022-09-12T15:18:54;0.40;;;0.40;;
10831;SDS011;5469;48.574;8.768;2022-09-12T15:21:29;2.30;;;0.50;;
10831;SDS011;5469;48.574;8.768;2022-09-12T15:24:05;1.02;;;0.30;;
10831;SDS011;5469;48.574;8.768;2022-09-12T15:26:42;0.20;;;0.20;;
10831;SDS011;5469;48.574;8.768;2022-09-12T15:29:17;0.40;;;0.28;;
10831;SDS011;5469;48.574;8.768;2022-09-12T15:31:52;0.22;;;0.22;;
10831;SDS011;5469;48.574;8.768;2022-09-12T15:34:27;0.40;;;0.40;;
10831;SDS011;5469;48.574;8.768;2022-09-12T15:37:04;0.40;;;0.40;;
10831;SDS011;5469;48.574;8.768;2022-09-12T15:39:43;0.20;;;0.20;;
10831;SDS011;5469;48.574;8.768;2022-09-12T15:42:22;0.40;;;0.40;;
10831;SDS011;5469;48.574;8.768;2022-09-12T15:45:00;0.30;;;0.30;;
10831;SDS011;5469;48.574;8.768;2022-09-12T15:47:42;0.30;;;0.30;;
10831;SDS011;5469;48.574;8.768;2022-09-12T15:50:17;0.60;;;0.60;;
10831;SDS011;5469;48.574;8.768;2022-09-12T15:52:53;0.45;;;0.45;;
10831;SDS011;5469;48.574;8.768;2022-09-12T15:55:30;0.20;;;0.20;;
10831;SDS011;5469;48.574;8.768;2022-09-12T15:58:08;0.40;;;0.30;;
10831;SDS011;5469;48.574;8.768;2022-09-12T16:00:43;2.58;;;0.40;;
10831;SDS011;5469;48.574;8.768;2022-09-12T16:03:20;0.30;;;0.30;;
10831;SDS011;5469;48.574;8.768;2022-09-12T16:05:58;0.45;;;0.40;;
10831;SDS011;5469;48.574;8.768;2022-09-12T16:08:36;0.35;;;0.35;;
10831;SDS011;5469;48.574;8.768;2022-09-12T16:11:14;0.30;;;0.30;;
10831;SDS011;5469;48.574;8.768;2022-09-12T16:13:54;0.30;;;0.30;;
10831;SDS011;5469;48.574;8.768;2022-09-12T16:16:29;0.43;;;0.30;;
10831;SDS011;5469;48.574;8.768;2022-09-12T16:19:05;0.40;;;0.40;;
10831;SDS011;5469;48.574;8.768;2022-09-12T16:21:43;0.40;;;0.40;;
10831;SDS011;5469;48.574;8.768;2022-09-12T16:24:18;0.40;;;0.40;;
10831;SDS011;5469;48.574;8.768;2022-09-12T16:26:54;1.20;;;0.32;;
10831;SDS011;5469;48.574;8.768;2022-09-12T16:29:31;0.60;;;0.60;;
10831;SDS011;5469;48.574;8.768;2022-09-12T16:32:06;0.60;;;0.60;;
10831;SDS011;5469;48.574;8.768;2022-09-12T16:34:42;0.40;;;0.40;;
10831;SDS011;5469;48.574;8.768;2022-09-12T16:37:17;0.43;;;0.43;;
10831;SDS011;5469;48.574;8.768;2022-09-12T16:39:53;0.68;;;0.50;;